Terminal Aerodrome Forecast
Issued by NWS

Home | Current Version | Previous Version | Text Only | Print | Product List | Glossary On
Versions: 1 2 3 4 5 6 7 8 9 10 11 12 13 14 15 16 17 18 19 20 21 22 23 24 25 26
000
FTUS46 KSGX 251200 AAA
TAFSAN
TAF AMD
KSAN 251237Z 2513/2618 VRB05KT P6SM FEW008 SCT080
     FM252000 29011KT P6SM SCT080
     FM260200 VRB04KT P6SM FEW015
     FM260500 VRB03KT P6SM BKN015
     FM260900 VRB04KT P6SM OVC020=

USA.gov is the U.S. government's official web portal to all federal, state and local government web resources and services.